Aberdeen Regional Airport

Airport
ICAO code: 
KABR
IATA Code: 
ABR
Summary
ICAO Region: 
NAM
Territory: 
Location: 
Aberdeen, South Dakota
Serving: 
Aberdeen
Elevation: 
1302 ft
Coordinates: 
Aerial View: 
45° 27' 10.806" N, 98° 25' 6.002" W
Airport CFIT: 
Altimeter Temperature Error Correction
Metar
Observation
KABR 271953Z AUTO 34020G26KT 10SM FEW070 BKN090 10/M02 A3008 RMK AO2 PK WND 35029/1904 SLP192 T01001022
Station
Aberdeen, Aberdeen Regional Airport
Date/Time
2021-11-27 19:53:00
Wind direction
340°
Wind speed
20 kts
Lowest cloud amount
few clouds
Temperature
10°C
Dew point
-2.2°C
Humidity
42%
Weather condition
n/a

Description

Aberdeen Regional Airport is a public use airport located 4 km east of the central business district of Aberdeen, a city in Brown County, South Dakota.

Climatology

Humid continental climate (Köppen climate classification Dfa) - characterized by four seasons: cold, windy, snowy winters, mild springs, hot, humid summers, and crisp and relatively short autumns. Precipitation reaches its lowest in January and February and peaks in summer and latter half of spring.

Runways

Designator Length Width Surface Rops
17/35 1676 30 ASP Yes/Yes
13/31 2103 30 CON Yes/Yes
Airport map: 
Aerial View: 

SKYbrary Partners:

Safety knowledge contributed by: